createdAt,value
2019-05-26T00:00:06.289Z,16.23
2019-05-26T00:02:32.339Z,14.87
2019-05-26T00:04:58.416Z,14.43
2019-05-26T00:07:30.693Z,13.90
2019-05-26T00:09:52.443Z,14.00
2019-05-26T00:12:19.822Z,14.73
2019-05-26T00:14:45.871Z,13.37
2019-05-26T00:17:11.933Z,12.73
2019-05-26T00:19:38.008Z,13.40
2019-05-26T00:22:04.065Z,13.90
2019-05-26T00:24:30.113Z,14.53
2019-05-26T00:26:56.192Z,13.10
2019-05-26T00:29:22.249Z,13.40
2019-05-26T00:31:48.324Z,15.33
2019-05-26T00:34:14.380Z,15.20
2019-05-26T00:36:40.435Z,15.27
2019-05-26T00:39:06.507Z,15.10
2019-05-26T00:41:32.658Z,14.87
2019-05-26T00:43:58.701Z,15.17
2019-05-26T00:46:24.764Z,13.20
2019-05-26T00:48:50.831Z,14.10
2019-05-26T00:51:16.888Z,13.47
2019-05-26T00:53:43.053Z,14.27
2019-05-26T00:56:09.139Z,14.80
2019-05-26T00:58:35.194Z,14.77
2019-05-26T01:01:01.255Z,14.97
2019-05-26T01:03:27.333Z,15.00
2019-05-26T01:05:53.398Z,14.60
2019-05-26T01:08:19.444Z,14.63
2019-05-26T01:10:45.512Z,15.33
2019-05-26T01:13:11.673Z,16.13
2019-05-26T01:15:37.731Z,16.37
2019-05-26T01:18:04.583Z,15.37
2019-05-26T01:20:30.648Z,15.00
2019-05-26T01:22:56.720Z,15.93
2019-05-26T01:25:22.780Z,15.40
2019-05-26T01:27:48.940Z,14.80
2019-05-26T01:30:15.413Z,15.50
2019-05-26T01:32:41.572Z,16.67
2019-05-26T01:35:07.833Z,16.37
2019-05-26T01:37:36.391Z,16.80
2019-05-26T01:40:05.264Z,15.43
2019-05-26T01:42:31.323Z,15.77
2019-05-26T01:44:57.385Z,15.97
2019-05-26T01:47:23.456Z,15.40
2019-05-26T01:49:49.523Z,15.03
2019-05-26T01:52:15.570Z,14.53
2019-05-26T01:54:41.633Z,14.83
2019-05-26T01:57:07.715Z,14.83
2019-05-26T01:59:33.782Z,15.57
2019-05-26T02:01:59.861Z,16.30
2019-05-26T02:04:26.003Z,15.00
2019-05-26T02:06:52.064Z,17.00
2019-05-26T02:09:18.132Z,16.03
2019-05-26T02:11:44.187Z,15.47
2019-05-26T02:14:14.229Z,15.50
2019-05-26T02:16:38.207Z,15.00
2019-05-26T02:19:04.267Z,16.53
2019-05-26T02:21:30.335Z,15.97
2019-05-26T02:23:56.397Z,15.20
2019-05-26T02:26:22.564Z,17.90
2019-05-26T02:28:48.630Z,15.67
2019-05-26T02:31:14.699Z,16.03
2019-05-26T02:33:40.753Z,16.23
2019-05-26T02:36:06.921Z,15.60
2019-05-26T02:38:32.981Z,17.43
2019-05-26T02:40:59.044Z,14.60
2019-05-26T02:43:25.100Z,17.83
2019-05-26T02:45:51.177Z,15.13
2019-05-26T02:48:17.228Z,17.47
2019-05-26T02:50:43.299Z,17.50
2019-05-26T02:53:09.361Z,16.13
2019-05-26T02:55:35.412Z,16.23
2019-05-26T02:58:01.494Z,15.03
2019-05-26T03:00:37.409Z,15.20
2019-05-26T03:03:03.568Z,15.10
2019-05-26T03:05:31.137Z,15.27
2019-05-26T03:07:57.398Z,15.73
2019-05-26T03:10:23.460Z,16.03
2019-05-26T03:12:50.529Z,16.43
2019-05-26T03:15:17.082Z,15.70
2019-05-26T03:17:45.849Z,17.20
2019-05-26T03:20:13.154Z,16.40
2019-05-26T03:22:39.594Z,17.30
2019-05-26T03:25:05.744Z,19.23
2019-05-26T03:27:31.824Z,17.07
2019-05-26T03:29:58.170Z,17.93
2019-05-26T03:32:24.225Z,16.77
2019-05-26T03:34:50.271Z,15.80
2019-05-26T03:37:16.348Z,14.90
2019-05-26T03:39:46.007Z,17.03
2019-05-26T03:42:10.468Z,16.40
2019-05-26T03:44:36.528Z,15.80
2019-05-26T03:47:02.592Z,15.70
2019-05-26T03:49:28.653Z,19.33
2019-05-26T03:51:54.907Z,16.40
2019-05-26T03:54:20.974Z,16.73
2019-05-26T03:56:47.048Z,16.27
2019-05-26T03:59:13.133Z,15.17
2019-05-26T04:01:39.191Z,17.97
2019-05-26T04:04:05.253Z,17.67
2019-05-26T04:06:31.320Z,18.37
2019-05-26T04:08:57.388Z,17.63
2019-05-26T04:11:23.625Z,16.47
2019-05-26T04:13:49.675Z,17.50
2019-05-26T04:16:15.836Z,17.47
2019-05-26T04:18:41.905Z,17.40
2019-05-26T04:21:07.956Z,18.03
2019-05-26T04:23:34.056Z,17.00
2019-05-26T04:26:00.292Z,15.93
2019-05-26T04:28:26.366Z,16.17
2019-05-26T04:30:52.434Z,16.43
2019-05-26T04:33:18.492Z,16.67
2019-05-26T04:35:44.556Z,15.40
2019-05-26T04:38:10.621Z,16.03
2019-05-26T04:40:36.686Z,16.23
2019-05-26T04:43:03.057Z,16.63
2019-05-26T04:45:29.107Z,17.30
2019-05-26T04:47:55.164Z,17.27
2019-05-26T04:50:21.231Z,17.90
2019-05-26T04:53:04.609Z,16.90
2019-05-26T04:55:15.256Z,20.40
2019-05-26T04:57:41.325Z,17.53
2019-05-26T05:00:08.994Z,19.07
2019-05-26T05:02:35.176Z,16.47
2019-05-26T05:05:02.920Z,20.17
2019-05-26T05:07:28.997Z,17.90
2019-05-26T05:09:55.143Z,16.67
2019-05-26T05:12:21.197Z,18.57
2019-05-26T05:14:47.361Z,16.20
2019-05-26T05:17:13.423Z,16.43
2019-05-26T05:19:39.498Z,17.97
2019-05-26T05:22:05.568Z,15.83
2019-05-26T05:24:31.635Z,17.43
2019-05-26T05:26:57.783Z,15.90
2019-05-26T05:29:23.875Z,15.07
2019-05-26T05:31:49.933Z,16.00
2019-05-26T05:34:15.989Z,16.53
2019-05-26T05:36:42.075Z,16.17
2019-05-26T05:39:08.124Z,16.90
2019-05-26T05:41:34.174Z,18.40
2019-05-26T05:44:00.249Z,19.57
2019-05-26T05:46:26.364Z,18.63
2019-05-26T05:48:52.496Z,17.40
2019-05-26T05:51:18.661Z,15.80
2019-05-26T05:53:44.775Z,17.87
2019-05-26T05:56:10.949Z,17.60
2019-05-26T05:58:37.100Z,17.47
2019-05-26T06:01:03.257Z,18.73
2019-05-26T06:03:29.388Z,17.10
2019-05-26T06:05:55.448Z,16.43
2019-05-26T06:08:21.529Z,17.30
2019-05-26T06:10:47.660Z,20.10
2019-05-26T06:13:13.708Z,16.20
2019-05-26T06:15:39.789Z,16.83
2019-05-26T06:18:05.848Z,15.63
2019-05-26T06:20:31.899Z,15.27
2019-05-26T06:22:57.969Z,15.50
2019-05-26T06:25:24.036Z,15.63
2019-05-26T06:27:50.101Z,17.03
2019-05-26T06:30:16.553Z,13.93
2019-05-26T06:32:42.627Z,14.67
2019-05-26T06:35:09.149Z,16.57
2019-05-26T06:37:35.242Z,14.10
2019-05-26T06:40:01.406Z,16.43
2019-05-26T06:42:27.470Z,15.03
2019-05-26T06:44:54.213Z,13.43
2019-05-26T06:47:20.417Z,14.13
2019-05-26T06:49:46.483Z,14.47
2019-05-26T06:52:12.554Z,13.90
2019-05-26T06:54:38.626Z,13.43
2019-05-26T06:57:04.709Z,14.37
2019-05-26T06:59:30.843Z,14.07
2019-05-26T07:01:57.024Z,13.20
2019-05-26T07:04:23.079Z,13.10
2019-05-26T07:06:49.136Z,15.03
2019-05-26T07:09:15.217Z,13.40
2019-05-26T07:11:54.262Z,13.90
2019-05-26T07:14:09.238Z,12.90
2019-05-26T07:16:38.405Z,14.90
2019-05-26T07:19:03.354Z,13.97
2019-05-26T07:21:29.458Z,15.70
2019-05-26T07:23:55.587Z,14.40
2019-05-26T07:26:21.664Z,13.93
2019-05-26T07:28:47.735Z,14.97
2019-05-26T07:31:13.887Z,14.60
2019-05-26T07:33:39.945Z,13.20
2019-05-26T07:36:06.007Z,15.83
2019-05-26T07:38:32.072Z,13.97
2019-05-26T07:40:58.133Z,16.83
2019-05-26T07:43:27.869Z,14.67
2019-05-26T07:45:52.168Z,13.20
2019-05-26T07:48:18.217Z,15.10
2019-05-26T07:50:44.279Z,14.57
2019-05-26T07:53:10.340Z,14.13
2019-05-26T07:55:36.407Z,15.20
2019-05-26T07:58:02.556Z,13.40
2019-05-26T08:00:28.749Z,15.30
2019-05-26T08:02:54.792Z,12.90
2019-05-26T08:05:20.853Z,13.43
2019-05-26T08:07:46.925Z,14.00
2019-05-26T08:10:13.287Z,13.83
2019-05-26T08:12:39.352Z,13.70
2019-05-26T08:15:06.523Z,16.77
2019-05-26T08:17:32.568Z,14.90
2019-05-26T08:19:58.623Z,13.57
2019-05-26T08:22:24.687Z,14.53
2019-05-26T08:24:50.743Z,15.10
2019-05-26T08:27:16.800Z,14.10
2019-05-26T08:29:42.863Z,13.90
2019-05-26T08:32:08.950Z,14.00
2019-05-26T08:34:35.002Z,12.53
2019-05-26T08:37:01.060Z,13.77
2019-05-26T08:39:27.218Z,14.20
2019-05-26T08:41:53.467Z,15.50
2019-05-26T08:44:19.606Z,15.20
2019-05-26T08:46:45.673Z,14.30
2019-05-26T08:49:11.734Z,14.97
2019-05-26T08:51:37.795Z,15.27
2019-05-26T08:54:04.015Z,14.70
2019-05-26T08:56:30.067Z,15.30
2019-05-26T08:58:56.144Z,14.73
2019-05-26T09:01:22.200Z,16.20
2019-05-26T09:03:48.261Z,13.30
2019-05-26T09:06:14.357Z,15.60
2019-05-26T09:08:40.499Z,14.30
2019-05-26T09:11:06.550Z,16.10
2019-05-26T09:13:32.610Z,16.90
2019-05-26T09:15:58.652Z,14.47
2019-05-26T09:18:24.720Z,14.97
2019-05-26T09:20:50.771Z,14.67
2019-05-26T09:23:16.823Z,15.33
2019-05-26T09:25:46.265Z,15.17
2019-05-26T09:28:10.941Z,15.77
2019-05-26T09:30:37.009Z,14.70
2019-05-26T09:33:03.151Z,17.00
2019-05-26T09:35:29.299Z,15.40
2019-05-26T09:37:55.373Z,14.10
2019-05-26T09:40:21.432Z,15.93
2019-05-26T09:42:47.572Z,15.23
2019-05-26T09:45:14.247Z,14.20
2019-05-26T09:47:40.298Z,16.93
2019-05-26T09:50:06.978Z,16.37
2019-05-26T09:52:33.035Z,16.73
2019-05-26T09:54:59.121Z,14.40
2019-05-26T09:57:25.173Z,14.13
2019-05-26T09:59:51.243Z,14.90
2019-05-26T10:02:17.312Z,14.50
2019-05-26T10:04:44.152Z,15.20
2019-05-26T10:07:14.910Z,16.77
2019-05-26T10:09:38.279Z,15.87
2019-05-26T10:12:04.379Z,18.00
2019-05-26T10:14:30.443Z,18.73
2019-05-26T10:16:56.553Z,16.07
2019-05-26T10:19:22.664Z,16.80
2019-05-26T10:21:48.741Z,18.90
2019-05-26T10:24:14.897Z,17.23
2019-05-26T10:26:41.060Z,18.03
2019-05-26T10:29:07.118Z,16.03
2019-05-26T10:31:33.173Z,14.23
2019-05-26T10:33:59.603Z,16.50
2019-05-26T10:36:26.027Z,15.73
2019-05-26T10:38:52.453Z,15.37
2019-05-26T10:41:18.513Z,13.97
2019-05-26T10:43:47.590Z,12.87
2019-05-26T10:46:12.529Z,14.30
2019-05-26T10:48:38.988Z,13.90
2019-05-26T10:51:07.009Z,12.93
2019-05-26T10:53:33.291Z,15.70
2019-05-26T10:55:59.388Z,14.73
2019-05-26T10:58:25.525Z,14.53
2019-05-26T11:00:51.644Z,12.50
2019-05-26T11:03:17.696Z,11.20
2019-05-26T11:05:44.125Z,10.07
2019-05-26T11:08:10.567Z,9.33
2019-05-26T11:10:36.989Z,9.10
2019-05-26T11:13:03.204Z,8.83
2019-05-26T11:15:29.260Z,7.90
2019-05-26T11:17:55.325Z,8.43
2019-05-26T11:20:21.887Z,7.80
2019-05-26T11:22:47.944Z,8.43
2019-05-26T11:25:14.213Z,8.17
2019-05-26T11:27:40.276Z,8.07
2019-05-26T11:30:08.757Z,7.60
2019-05-26T11:32:34.864Z,9.03
2019-05-26T11:35:02.033Z,10.00
2019-05-26T11:37:28.672Z,11.90
2019-05-26T11:39:54.770Z,8.30
2019-05-26T11:42:20.826Z,7.63
2019-05-26T11:44:46.949Z,8.40
2019-05-26T11:47:13.360Z,7.53
2019-05-26T11:49:39.446Z,8.23
2019-05-26T11:52:06.009Z,10.47
2019-05-26T11:54:34.674Z,10.40
2019-05-26T11:57:00.919Z,9.30
2019-05-26T11:59:27.349Z,9.10
2019-05-26T12:01:53.807Z,8.37
2019-05-26T12:04:20.225Z,8.27
2019-05-26T12:06:46.652Z,7.63
2019-05-26T12:09:13.183Z,6.93
2019-05-26T12:11:39.610Z,8.07
2019-05-26T12:14:06.047Z,7.47
2019-05-26T12:16:32.516Z,5.97
2019-05-26T12:18:58.967Z,7.60
2019-05-26T12:21:25.494Z,7.20
2019-05-26T12:23:54.944Z,6.20
2019-05-26T12:26:20.241Z,6.30
2019-05-26T12:28:46.667Z,6.33
2019-05-26T12:31:13.099Z,6.07
2019-05-26T12:33:39.517Z,7.17
2019-05-26T12:36:06.052Z,5.77
2019-05-26T12:38:34.417Z,6.77
2019-05-26T12:41:00.832Z,5.97
2019-05-26T12:43:27.273Z,5.43
2019-05-26T12:45:53.687Z,5.60
2019-05-26T12:48:20.118Z,5.87
2019-05-26T12:50:46.660Z,6.03
2019-05-26T12:53:13.105Z,5.33
2019-05-26T12:55:39.714Z,5.70
2019-05-26T12:58:06.175Z,5.87
2019-05-26T13:00:47.346Z,6.60
2019-05-26T13:03:00.921Z,6.10
2019-05-26T13:05:27.452Z,5.80
2019-05-26T13:07:53.879Z,5.40
2019-05-26T13:10:20.611Z,5.00
2019-05-26T13:12:47.024Z,5.50
2019-05-26T13:15:13.756Z,4.53
2019-05-26T13:17:40.385Z,4.13
2019-05-26T13:20:07.809Z,4.57
2019-05-26T13:22:34.562Z,4.30
2019-05-26T13:25:01.376Z,4.90
2019-05-26T13:27:27.792Z,5.20
2019-05-26T13:29:54.224Z,4.70
2019-05-26T13:32:20.635Z,4.70
2019-05-26T13:34:47.056Z,4.80
2019-05-26T13:37:13.482Z,5.30
2019-05-26T13:39:39.924Z,4.97
2019-05-26T13:42:06.416Z,4.90
2019-05-26T13:44:32.852Z,4.70
2019-05-26T13:46:59.302Z,5.30
2019-05-26T13:49:25.732Z,4.90
2019-05-26T13:51:51.786Z,4.77
2019-05-26T13:54:17.952Z,4.93
2019-05-26T13:56:44.017Z,4.93
2019-05-26T13:59:10.066Z,6.27
2019-05-26T14:01:36.503Z,5.30
2019-05-26T14:04:03.431Z,4.40
2019-05-26T14:06:29.852Z,4.40
2019-05-26T14:08:55.922Z,3.80
2019-05-26T14:11:21.981Z,4.63
2019-05-26T14:13:48.033Z,4.77
2019-05-26T14:16:14.999Z,5.37
2019-05-26T14:18:42.863Z,4.30
2019-05-26T14:21:08.947Z,4.57
2019-05-26T14:23:35.371Z,4.10
2019-05-26T14:26:01.783Z,4.70
2019-05-26T14:28:28.220Z,3.93
2019-05-26T14:30:54.638Z,4.57
2019-05-26T14:33:21.076Z,4.60
2019-05-26T14:35:47.500Z,4.13
2019-05-26T14:38:13.951Z,4.20
2019-05-26T14:40:40.513Z,4.50
2019-05-26T14:43:06.983Z,3.67
2019-05-26T14:45:33.967Z,4.37
2019-05-26T14:48:00.440Z,4.40
2019-05-26T14:50:27.431Z,4.60
2019-05-26T14:52:53.920Z,4.20
2019-05-26T14:55:20.601Z,4.00
2019-05-26T14:57:47.068Z,4.40
2019-05-26T15:00:13.966Z,3.60
2019-05-26T15:02:40.447Z,4.23
2019-05-26T15:05:07.320Z,5.23
2019-05-26T15:07:34.096Z,5.50
2019-05-26T15:10:00.578Z,4.30
2019-05-26T15:12:27.068Z,4.60
2019-05-26T15:14:53.526Z,4.90
2019-05-26T15:17:19.995Z,4.40
2019-05-26T15:19:46.489Z,4.40
2019-05-26T15:22:12.967Z,5.70
2019-05-26T15:24:39.467Z,4.03
2019-05-26T15:27:05.945Z,4.10
2019-05-26T15:29:32.412Z,4.10
2019-05-26T15:31:59.004Z,5.47
2019-05-26T15:34:25.485Z,5.30
2019-05-26T15:36:51.969Z,5.27
2019-05-26T15:39:18.460Z,5.53
2019-05-26T15:41:44.957Z,4.50
2019-05-26T15:44:11.428Z,4.07
2019-05-26T15:46:37.946Z,3.90
2019-05-26T15:49:04.514Z,3.63
2019-05-26T15:51:30.997Z,4.60
2019-05-26T15:53:57.496Z,3.60
2019-05-26T15:56:23.979Z,4.87
2019-05-26T15:58:50.444Z,3.87
2019-05-26T16:01:16.937Z,3.70
2019-05-26T16:03:43.429Z,4.03
2019-05-26T16:06:09.920Z,4.23
2019-05-26T16:08:36.408Z,4.17
2019-05-26T16:11:02.876Z,4.10
2019-05-26T16:13:29.375Z,4.30
2019-05-26T16:15:55.840Z,4.20
2019-05-26T16:18:22.322Z,3.80
2019-05-26T16:20:48.808Z,3.70
2019-05-26T16:23:15.295Z,4.00
2019-05-26T16:25:41.785Z,3.83
2019-05-26T16:28:08.264Z,3.90
2019-05-26T16:30:34.731Z,4.60
2019-05-26T16:33:01.264Z,3.60
2019-05-26T16:35:27.807Z,3.90
2019-05-26T16:37:54.296Z,4.20
2019-05-26T16:40:20.773Z,4.00
2019-05-26T16:42:47.353Z,4.17
2019-05-26T16:45:14.858Z,3.90
2019-05-26T16:47:41.352Z,3.50
2019-05-26T16:50:07.932Z,3.73
2019-05-26T16:52:34.431Z,4.40
2019-05-26T16:55:01.005Z,3.87
2019-05-26T16:57:27.472Z,4.00
2019-05-26T16:59:53.984Z,3.57
2019-05-26T17:02:20.564Z,4.13
2019-05-26T17:04:47.056Z,4.83
2019-05-26T17:07:13.531Z,4.10
2019-05-26T17:09:40.013Z,3.97
2019-05-26T17:12:06.498Z,3.50
2019-05-26T17:14:32.976Z,3.67
2019-05-26T17:17:13.436Z,3.40
2019-05-26T17:19:27.864Z,4.80
2019-05-26T17:21:54.496Z,3.63
2019-05-26T17:24:20.965Z,3.50
2019-05-26T17:26:47.456Z,3.40
2019-05-26T17:29:13.953Z,3.23
2019-05-26T17:31:40.532Z,5.27
2019-05-26T17:34:07.025Z,4.63
2019-05-26T17:36:33.500Z,4.03
2019-05-26T17:39:00.012Z,6.90
2019-05-26T17:41:26.593Z,4.00
2019-05-26T17:43:53.065Z,3.83
2019-05-26T17:46:19.624Z,3.50
2019-05-26T17:48:46.508Z,3.80
2019-05-26T17:51:12.980Z,3.70
2019-05-26T17:53:39.528Z,4.03
2019-05-26T17:56:06.024Z,4.43
2019-05-26T17:58:32.528Z,3.97
2019-05-26T18:00:59.053Z,3.70
2019-05-26T18:03:25.571Z,3.73
2019-05-26T18:05:52.034Z,3.83
2019-05-26T18:08:18.582Z,3.70
2019-05-26T18:10:45.096Z,3.70
2019-05-26T18:13:11.589Z,3.30
2019-05-26T18:15:38.231Z,4.00
2019-05-26T18:18:04.729Z,3.80
2019-05-26T18:20:31.299Z,3.50
2019-05-26T18:22:57.852Z,4.30
2019-05-26T18:25:24.387Z,5.00
2019-05-26T18:27:50.886Z,4.63
2019-05-26T18:30:17.379Z,5.33
2019-05-26T18:32:43.857Z,4.57
2019-05-26T18:35:10.485Z,5.77
2019-05-26T18:37:36.964Z,5.20
2019-05-26T18:40:04.369Z,5.53
2019-05-26T18:42:30.836Z,6.03
2019-05-26T18:44:57.332Z,5.70
2019-05-26T18:47:23.808Z,6.37
2019-05-26T18:49:50.315Z,5.60
2019-05-26T18:52:16.786Z,5.77
2019-05-26T18:54:43.260Z,5.97
2019-05-26T18:57:09.743Z,5.07
2019-05-26T18:59:36.168Z,6.23
2019-05-26T19:02:02.605Z,5.77
2019-05-26T19:04:29.066Z,7.03
2019-05-26T19:06:55.479Z,5.80
2019-05-26T19:09:21.552Z,5.60
2019-05-26T19:11:47.609Z,5.70
2019-05-26T19:14:13.690Z,6.40
2019-05-26T19:16:39.761Z,5.10
2019-05-26T19:19:05.928Z,5.23
2019-05-26T19:21:32.090Z,5.40
2019-05-26T19:23:58.140Z,5.70
2019-05-26T19:26:24.192Z,5.10
2019-05-26T19:28:50.265Z,5.77
2019-05-26T19:31:16.328Z,5.50
2019-05-26T19:33:42.385Z,5.97
2019-05-26T19:36:09.714Z,6.27
2019-05-26T19:38:36.076Z,6.60
2019-05-26T19:41:02.150Z,6.40
2019-05-26T19:43:28.219Z,6.07
2019-05-26T19:45:54.673Z,6.17
2019-05-26T19:48:34.983Z,6.10
2019-05-26T19:50:48.707Z,6.30
2019-05-26T19:53:14.776Z,6.40
2019-05-26T19:55:40.828Z,7.40
2019-05-26T19:58:06.887Z,7.03
2019-05-26T20:00:32.958Z,8.00
2019-05-26T20:02:59.047Z,7.43
2019-05-26T20:05:25.191Z,7.47
2019-05-26T20:07:51.265Z,7.83
2019-05-26T20:10:17.541Z,7.63
2019-05-26T20:12:43.605Z,7.40
2019-05-26T20:15:13.280Z,7.10
2019-05-26T20:17:39.361Z,6.10
2019-05-26T20:20:07.110Z,6.83
2019-05-26T20:22:33.190Z,6.50
2019-05-26T20:24:59.259Z,6.60
2019-05-26T20:27:25.317Z,6.70
2019-05-26T20:29:51.395Z,6.43
2019-05-26T20:32:17.436Z,6.33
2019-05-26T20:34:43.505Z,8.73
2019-05-26T20:37:09.564Z,9.83
2019-05-26T20:39:35.620Z,9.77
2019-05-26T20:42:01.693Z,9.50
2019-05-26T20:44:27.743Z,8.13
2019-05-26T20:46:53.812Z,9.13
2019-05-26T20:49:19.880Z,7.83
2019-05-26T20:51:46.030Z,8.93
2019-05-26T20:54:12.121Z,7.43
2019-05-26T20:56:39.250Z,7.87
2019-05-26T20:59:05.499Z,7.10
2019-05-26T21:01:31.597Z,7.80
2019-05-26T21:03:57.663Z,8.43
2019-05-26T21:06:23.804Z,7.73
2019-05-26T21:08:49.864Z,8.00
2019-05-26T21:11:15.922Z,10.53
2019-05-26T21:13:42.056Z,8.70
2019-05-26T21:16:08.159Z,7.43
2019-05-26T21:18:34.207Z,8.47
2019-05-26T21:21:00.290Z,8.80
2019-05-26T21:23:26.344Z,9.80
2019-05-26T21:25:52.397Z,9.47
2019-05-26T21:28:18.465Z,9.90
2019-05-26T21:30:44.520Z,8.40
2019-05-26T21:33:10.607Z,11.97
2019-05-26T21:35:36.751Z,9.57
2019-05-26T21:38:02.904Z,9.53
2019-05-26T21:40:28.988Z,9.80
2019-05-26T21:42:55.042Z,9.03
2019-05-26T21:45:21.201Z,8.67
2019-05-26T21:47:47.273Z,9.50
2019-05-26T21:50:13.522Z,9.33
2019-05-26T21:52:39.590Z,9.50
2019-05-26T21:55:05.851Z,10.30
2019-05-26T21:57:31.903Z,9.67
2019-05-26T21:59:57.974Z,9.77
2019-05-26T22:02:24.062Z,9.97
2019-05-26T22:04:50.211Z,10.33
2019-05-26T22:07:16.269Z,8.40
2019-05-26T22:09:42.340Z,9.90
2019-05-26T22:12:08.462Z,9.67
2019-05-26T22:14:34.567Z,10.20
2019-05-26T22:17:00.634Z,9.90
2019-05-26T22:19:26.681Z,9.63
2019-05-26T22:21:52.751Z,10.67
2019-05-26T22:24:18.815Z,9.70
2019-05-26T22:26:44.876Z,9.93
2019-05-26T22:29:10.935Z,10.20
2019-05-26T22:31:36.987Z,10.47
2019-05-26T22:34:03.265Z,11.03
2019-05-26T22:36:29.315Z,10.17
2019-05-26T22:38:55.372Z,10.90
2019-05-26T22:41:21.516Z,9.63
2019-05-26T22:43:47.612Z,9.70
2019-05-26T22:46:13.665Z,9.17
2019-05-26T22:48:39.750Z,9.53
2019-05-26T22:51:05.811Z,9.63
2019-05-26T22:53:31.863Z,10.50
2019-05-26T22:55:57.927Z,10.20
2019-05-26T22:58:24.097Z,9.17
2019-05-26T23:00:50.152Z,9.50
2019-05-26T23:03:16.247Z,9.20
2019-05-26T23:05:42.301Z,8.90
2019-05-26T23:08:08.352Z,9.70
2019-05-26T23:10:34.523Z,9.77
2019-05-26T23:13:00.583Z,9.53
2019-05-26T23:15:27.141Z,10.10
2019-05-26T23:17:53.216Z,9.60
2019-05-26T23:20:19.426Z,10.00
2019-05-26T23:22:45.525Z,10.60
2019-05-26T23:25:12.191Z,11.03
2019-05-26T23:27:38.271Z,9.40
2019-05-26T23:30:05.643Z,10.87
2019-05-26T23:32:31.810Z,9.77
2019-05-26T23:34:57.864Z,10.80
2019-05-26T23:37:23.939Z,10.50
2019-05-26T23:39:50.005Z,10.03
2019-05-26T23:42:16.063Z,9.73
2019-05-26T23:44:42.115Z,10.40
2019-05-26T23:47:08.193Z,9.77
2019-05-26T23:49:34.251Z,10.40
2019-05-26T23:52:00.311Z,10.10
2019-05-26T23:54:26.396Z,10.60
2019-05-26T23:56:52.536Z,10.00
2019-05-26T23:59:18.600Z,10.87
